Aérodrome :
LOGIN :

S'inscrire | Disclaimer

   EN    FR    IT 

 










Légende :    VFR   VFR Marginal   IFR   IFR Intensif   IFR Très Intensif
Visi : 
Plafond : 
>= 8 km
>= 3000ft
5 à 8 km
1000 à 3000 ft
1500m à 5 km
500 à 1000 ft
800 à 1500m
200 à 500 ft
< 800m
< 200 ft
Symboles :   Orages  Brouillard  Fortes neiges  Fortes précipitations  Vent > 20 kt
SIGMETs :   Divers  Orages  Givrage  Turbulence  Onde Orograph.  Cendres Volcan.







- Altitude de l'aérodrome : 106 ft
- Code IATA : NRN


EDLV - Weeze

DERNIER METAR :
  • 141820Z 20009KT CAVOK 04/02 Q0990

METARs EXPIRÉS :
  • 141750Z 20010KT CAVOK 04/02 Q0990
  • 141720Z 20009KT CAVOK 04/02 Q0990
  • 141650Z 20009KT CAVOK 04/02 Q0990
  • 141620Z 20011KT 170V230 CAVOK 04/02 Q0991
  • 141550Z 22012KT CAVOK 04/02 Q0991

TAF TAF EDLV
Valide du 14 à 18h jusqu'au 15 à 18h UTC


141700Z 1418/1518 20010KT 9999 BKN020
TEMPO 1418/1518 BKN013
BECMG 1420/1423 19005KT
PROB30
TEMPO 1503/1508 3500 BR BKN004
BECMG 1512/1515 VRB02KT
Pas de NOTAMs connus pour ce terrain.
1 SIGMET publié pour la FIR Langen (EDGG) :
 
Turbulence forte
EDGG SIGMET 3 VALID 141744/141930 EDZF
EDGG LANGEN FIR SEV TURB OBS S OF N4840 FL180/240 STNR NC=



MET'MAP, la Météo Aéronautique d'un coup d'oeil ! - Copyright ORBIFLY Décembre 2007 - Disclaimer

ORBIFLY MET'MAP TEAM :

Programmation & Développement : Alexandra Zaïnal
Conception & Développement : Baudouin d'Aumeries
Co-Programmation & Développement : Marc-Olivier Méhu
Soutien technique & logistique : Manuel Goepfert

Contact : metmap@orbifly.com




SOURCES & CREDITS :

   NOAA